sensor_id;sensor_type;location;lat;lon;timestamp;pressure;altitude;pressure_sealevel;temperature;humidity
22550;BME280;11441;57.164;-2.120;2023-06-26T00:01:12;100376.75;;;14.49;100.00
22550;BME280;11441;57.164;-2.120;2023-06-26T00:03:39;100365.66;;;14.53;100.00
22550;BME280;11441;57.164;-2.120;2023-06-26T00:06:06;100370.44;;;14.52;100.00
22550;BME280;11441;57.164;-2.120;2023-06-26T00:08:55;100373.97;;;14.53;100.00
22550;BME280;11441;57.164;-2.120;2023-06-26T00:11:22;100373.59;;;14.51;100.00
22550;BME280;11441;57.164;-2.120;2023-06-26T00:13:50;100373.16;;;14.45;100.00
22550;BME280;11441;57.164;-2.120;2023-06-26T00:16:17;100367.19;;;14.40;100.00
22550;BME280;11441;57.164;-2.120;2023-06-26T00:18:44;100376.75;;;14.53;100.00
22550;BME280;11441;57.164;-2.120;2023-06-26T00:21:11;100372.75;;;14.47;100.00
22550;BME280;11441;57.164;-2.120;2023-06-26T00:23:37;100349.75;;;14.28;100.00
22550;BME280;11441;57.164;-2.120;2023-06-26T00:26:06;100368.25;;;14.17;100.00
22550;BME280;11441;57.164;-2.120;2023-06-26T00:28:51;100371.88;;;14.25;100.00
22550;BME280;11441;57.164;-2.120;2023-06-26T00:31:19;100380.25;;;14.36;100.00
22550;BME280;11441;57.164;-2.120;2023-06-26T00:33:46;100377.84;;;14.30;100.00
22550;BME280;11441;57.164;-2.120;2023-06-26T00:36:13;100376.56;;;14.17;100.00
22550;BME280;11441;57.164;-2.120;2023-06-26T00:38:41;100368.31;;;14.24;100.00
22550;BME280;11441;57.164;-2.120;2023-06-26T00:41:08;100376.56;;;14.13;100.00
22550;BME280;11441;57.164;-2.120;2023-06-26T00:43:40;100374.66;;;14.25;100.00
22550;BME280;11441;57.164;-2.120;2023-06-26T00:46:10;100380.56;;;14.20;100.00
22550;BME280;11441;57.164;-2.120;2023-06-26T00:48:41;100372.97;;;14.09;100.00
22550;BME280;11441;57.164;-2.120;2023-06-26T00:51:12;100374.53;;;14.03;100.00
22550;BME280;11441;57.164;-2.120;2023-06-26T00:53:39;100365.03;;;14.01;100.00
22550;BME280;11441;57.164;-2.120;2023-06-26T00:56:08;100377.56;;;13.84;100.00
22550;BME280;11441;57.164;-2.120;2023-06-26T00:58:35;100379.25;;;13.99;100.00
22550;BME280;11441;57.164;-2.120;2023-06-26T01:01:02;100381.63;;;13.97;100.00
22550;BME280;11441;57.164;-2.120;2023-06-26T01:03:32;100377.25;;;14.00;100.00
22550;BME280;11441;57.164;-2.120;2023-06-26T01:05:59;100384.34;;;13.90;100.00
22550;BME280;11441;57.164;-2.120;2023-06-26T01:08:27;100383.63;;;14.04;100.00
22550;BME280;11441;57.164;-2.120;2023-06-26T01:10:54;100379.28;;;14.03;100.00
22550;BME280;11441;57.164;-2.120;2023-06-26T01:13:39;100374.06;;;13.90;100.00
22550;BME280;11441;57.164;-2.120;2023-06-26T01:16:08;100386.59;;;13.73;100.00
22550;BME280;11441;57.164;-2.120;2023-06-26T01:18:37;100390.16;;;13.77;100.00
22550;BME280;11441;57.164;-2.120;2023-06-26T01:21:09;100386.22;;;13.79;100.00
22550;BME280;11441;57.164;-2.120;2023-06-26T01:24:04;100399.56;;;13.62;100.00
22550;BME280;11441;57.164;-2.120;2023-06-26T01:26:36;100402.31;;;13.62;100.00
22550;BME280;11441;57.164;-2.120;2023-06-26T01:29:06;100403.78;;;13.49;100.00
22550;BME280;11441;57.164;-2.120;2023-06-26T01:31:34;100385.91;;;13.39;100.00
22550;BME280;11441;57.164;-2.120;2023-06-26T01:34:02;100398.88;;;13.31;100.00
22550;BME280;11441;57.164;-2.120;2023-06-26T01:36:29;100401.78;;;13.46;100.00
22550;BME280;11441;57.164;-2.120;2023-06-26T01:38:56;100405.69;;;13.41;100.00
22550;BME280;11441;57.164;-2.120;2023-06-26T01:41:23;100399.59;;;13.28;100.00
22550;BME280;11441;57.164;-2.120;2023-06-26T01:52:21;100405.13;;;13.28;100.00
22550;BME280;11441;57.164;-2.120;2023-06-26T01:54:58;100406.94;;;13.10;100.00
22550;BME280;11441;57.164;-2.120;2023-06-26T01:57:27;100393.88;;;13.07;100.00
22550;BME280;11441;57.164;-2.120;2023-06-26T02:00:14;100402.09;;;12.99;100.00
22550;BME280;11441;57.164;-2.120;2023-06-26T02:02:44;100395.34;;;12.97;100.00
22550;BME280;11441;57.164;-2.120;2023-06-26T02:05:48;100401.25;;;12.95;100.00
22550;BME280;11441;57.164;-2.120;2023-06-26T02:08:15;100400.38;;;12.88;100.00
22550;BME280;11441;57.164;-2.120;2023-06-26T02:10:48;100399.50;;;12.80;100.00
22550;BME280;11441;57.164;-2.120;2023-06-26T02:13:15;100408.22;;;12.82;100.00
22550;BME280;11441;57.164;-2.120;2023-06-26T02:15:43;100408.31;;;12.89;100.00
22550;BME280;11441;57.164;-2.120;2023-06-26T02:18:09;100405.13;;;12.87;100.00
22550;BME280;11441;57.164;-2.120;2023-06-26T02:20:37;100410.66;;;12.87;100.00
22550;BME280;11441;57.164;-2.120;2023-06-26T02:23:04;100405.88;;;12.84;100.00
22550;BME280;11441;57.164;-2.120;2023-06-26T02:25:31;100405.53;;;12.89;100.00
22550;BME280;11441;57.164;-2.120;2023-06-26T02:27:58;100412.97;;;12.85;100.00
22550;BME280;11441;57.164;-2.120;2023-06-26T02:30:25;100415.66;;;12.78;100.00
22550;BME280;11441;57.164;-2.120;2023-06-26T02:32:51;100402.59;;;12.75;100.00
22550;BME280;11441;57.164;-2.120;2023-06-26T02:35:18;100397.66;;;12.57;100.00
22550;BME280;11441;57.164;-2.120;2023-06-26T02:37:45;100413.56;;;12.68;100.00
22550;BME280;11441;57.164;-2.120;2023-06-26T02:40:13;100413.22;;;12.73;100.00
22550;BME280;11441;57.164;-2.120;2023-06-26T02:42:59;100415.31;;;12.83;100.00
22550;BME280;11441;57.164;-2.120;2023-06-26T02:45:26;100419.69;;;12.84;100.00
22550;BME280;11441;57.164;-2.120;2023-06-26T02:47:54;100411.28;;;12.73;100.00
22550;BME280;11441;57.164;-2.120;2023-06-26T02:50:21;100416.38;;;12.71;100.00
22550;BME280;11441;57.164;-2.120;2023-06-26T02:53:23;100419.75;;;12.57;100.00
22550;BME280;11441;57.164;-2.120;2023-06-26T02:55:50;100421.31;;;12.55;100.00
22550;BME280;11441;57.164;-2.120;2023-06-26T02:58:17;100424.56;;;12.64;100.00
22550;BME280;11441;57.164;-2.120;2023-06-26T03:00:44;100415.81;;;12.58;100.00
22550;BME280;11441;57.164;-2.120;2023-06-26T03:03:28;100419.03;;;12.64;100.00
22550;BME280;11441;57.164;-2.120;2023-06-26T03:05:56;100415.91;;;12.66;100.00
22550;BME280;11441;57.164;-2.120;2023-06-26T03:08:25;100414.19;;;12.54;100.00
22550;BME280;11441;57.164;-2.120;2023-06-26T03:10:52;100425.69;;;12.56;100.00
22550;BME280;11441;57.164;-2.120;2023-06-26T03:13:19;100424.63;;;12.68;100.00
22550;BME280;11441;57.164;-2.120;2023-06-26T03:15:46;100424.53;;;12.60;100.00
22550;BME280;11441;57.164;-2.120;2023-06-26T03:18:13;100419.03;;;12.64;100.00
22550;BME280;11441;57.164;-2.120;2023-06-26T03:20:40;100430.66;;;12.77;100.00
22550;BME280;11441;57.164;-2.120;2023-06-26T03:23:07;100438.25;;;12.83;100.00
22550;BME280;11441;57.164;-2.120;2023-06-26T03:25:34;100433.81;;;12.75;100.00
22550;BME280;11441;57.164;-2.120;2023-06-26T03:28:21;100427.41;;;12.71;100.00
22550;BME280;11441;57.164;-2.120;2023-06-26T03:30:48;100438.19;;;12.80;100.00
22550;BME280;11441;57.164;-2.120;2023-06-26T03:33:16;100429.44;;;12.74;100.00
22550;BME280;11441;57.164;-2.120;2023-06-26T03:35:43;100443.72;;;12.80;100.00
22550;BME280;11441;57.164;-2.120;2023-06-26T03:38:12;100442.88;;;12.76;100.00
22550;BME280;11441;57.164;-2.120;2023-06-26T03:40:41;100444.53;;;12.80;100.00
22550;BME280;11441;57.164;-2.120;2023-06-26T03:43:08;100444.22;;;12.89;100.00
22550;BME280;11441;57.164;-2.120;2023-06-26T03:46:13;100443.34;;;12.81;100.00
22550;BME280;11441;57.164;-2.120;2023-06-26T03:48:40;100445.31;;;12.81;100.00
22550;BME280;11441;57.164;-2.120;2023-06-26T03:51:08;100449.34;;;12.87;100.00
22550;BME280;11441;57.164;-2.120;2023-06-26T03:53:35;100444.53;;;12.80;100.00
22550;BME280;11441;57.164;-2.120;2023-06-26T03:56:02;100441.88;;;12.91;100.00
22550;BME280;11441;57.164;-2.120;2023-06-26T03:58:29;100444.56;;;12.84;100.00
22550;BME280;11441;57.164;-2.120;2023-06-26T04:00:55;100446.13;;;12.85;100.00
22550;BME280;11441;57.164;-2.120;2023-06-26T04:03:24;100441.72;;;12.77;100.00
22550;BME280;11441;57.164;-2.120;2023-06-26T04:05:51;100450.09;;;12.84;100.00
22550;BME280;11441;57.164;-2.120;2023-06-26T04:08:18;100449.69;;;12.82;100.00
22550;BME280;11441;57.164;-2.120;2023-06-26T04:10:46;100448.53;;;12.87;100.00
22550;BME280;11441;57.164;-2.120;2023-06-26T04:13:32;100458.88;;;12.93;100.00
22550;BME280;11441;57.164;-2.120;2023-06-26T04:15:59;100467.97;;;12.94;100.00
22550;BME280;11441;57.164;-2.120;2023-06-26T04:18:26;100459.72;;;12.97;100.00
22550;BME280;11441;57.164;-2.120;2023-06-26T04:21:11;100450.66;;;13.00;100.00
22550;BME280;11441;57.164;-2.120;2023-06-26T04:23:39;100467.25;;;13.00;100.00
22550;BME280;11441;57.164;-2.120;2023-06-26T04:26:07;100467.13;;;12.90;100.00
22550;BME280;11441;57.164;-2.120;2023-06-26T04:28:35;100470.88;;;13.05;100.00
22550;BME280;11441;57.164;-2.120;2023-06-26T04:31:02;100478.56;;;12.88;100.00
22550;BME280;11441;57.164;-2.120;2023-06-26T04:33:32;100478.66;;;12.95;100.00
22550;BME280;11441;57.164;-2.120;2023-06-26T04:35:59;100482.19;;;12.92;100.00
22550;BME280;11441;57.164;-2.120;2023-06-26T04:38:31;100483.09;;;13.04;100.00
22550;BME280;11441;57.164;-2.120;2023-06-26T04:40:59;100485.09;;;13.07;100.00
22550;BME280;11441;57.164;-2.120;2023-06-26T04:43:26;100486.31;;;12.75;100.00
22550;BME280;11441;57.164;-2.120;2023-06-26T04:45:53;100460.81;;;12.89;100.00
22550;BME280;11441;57.164;-2.120;2023-06-26T04:48:20;100487.50;;;13.08;100.00
22550;BME280;11441;57.164;-2.120;2023-06-26T04:50:48;100486.66;;;13.04;100.00
22550;BME280;11441;57.164;-2.120;2023-06-26T04:53:21;100485.06;;;13.03;100.00
22550;BME280;11441;57.164;-2.120;2023-06-26T04:55:50;100489.81;;;13.06;100.00
22550;BME280;11441;57.164;-2.120;2023-06-26T04:58:18;100501.13;;;12.94;100.00
22550;BME280;11441;57.164;-2.120;2023-06-26T05:00:45;100498.81;;;12.96;100.00
22550;BME280;11441;57.164;-2.120;2023-06-26T05:03:13;100501.84;;;12.87;100.00
22550;BME280;11441;57.164;-2.120;2023-06-26T05:05:41;100501.63;;;12.99;100.00
22550;BME280;11441;57.164;-2.120;2023-06-26T05:10:41;100497.00;;;12.77;100.00
22550;BME280;11441;57.164;-2.120;2023-06-26T05:13:08;100511.41;;;12.93;100.00
22550;BME280;11441;57.164;-2.120;2023-06-26T05:15:35;100504.13;;;12.81;100.00
22550;BME280;11441;57.164;-2.120;2023-06-26T05:18:02;100506.63;;;12.90;100.00
22550;BME280;11441;57.164;-2.120;2023-06-26T05:20:30;100494.81;;;12.93;100.00
22550;BME280;11441;57.164;-2.120;2023-06-26T05:22:57;100502.28;;;12.89;100.00
22550;BME280;11441;57.164;-2.120;2023-06-26T05:25:25;100504.72;;;12.94;100.00
22550;BME280;11441;57.164;-2.120;2023-06-26T05:27:53;100507.00;;;12.89;100.00
22550;BME280;11441;57.164;-2.120;2023-06-26T05:30:21;100511.09;;;13.02;100.00
22550;BME280;11441;57.164;-2.120;2023-06-26T05:32:49;100506.56;;;13.17;100.00
22550;BME280;11441;57.164;-2.120;2023-06-26T05:35:16;100497.03;;;13.14;100.00
22550;BME280;11441;57.164;-2.120;2023-06-26T05:37:44;100513.75;;;13.25;100.00
22550;BME280;11441;57.164;-2.120;2023-06-26T05:40:12;100507.44;;;13.25;100.00
22550;BME280;11441;57.164;-2.120;2023-06-26T05:42:39;100509.78;;;13.23;100.00
22550;BME280;11441;57.164;-2.120;2023-06-26T05:45:06;100490.34;;;13.15;100.00
22550;BME280;11441;57.164;-2.120;2023-06-26T05:47:34;100513.66;;;13.18;100.00
22550;BME280;11441;57.164;-2.120;2023-06-26T05:50:01;100524.81;;;13.25;100.00
22550;BME280;11441;57.164;-2.120;2023-06-26T05:52:29;100526.09;;;13.31;100.00
22550;BME280;11441;57.164;-2.120;2023-06-26T05:54:56;100523.00;;;13.36;100.00
22550;BME280;11441;57.164;-2.120;2023-06-26T05:57:30;100532.13;;;13.41;100.00
22550;BME280;11441;57.164;-2.120;2023-06-26T05:59:57;100530.06;;;13.34;100.00
22550;BME280;11441;57.164;-2.120;2023-06-26T06:02:24;100530.06;;;13.34;100.00
22550;BME280;11441;57.164;-2.120;2023-06-26T06:04:51;100532.22;;;13.51;100.00
22550;BME280;11441;57.164;-2.120;2023-06-26T06:07:18;100528.97;;;13.42;100.00
22550;BME280;11441;57.164;-2.120;2023-06-26T06:09:45;100530.34;;;13.59;100.00
22550;BME280;11441;57.164;-2.120;2023-06-26T06:12:12;100541.13;;;13.68;100.00
22550;BME280;11441;57.164;-2.120;2023-06-26T06:14:39;100541.78;;;13.57;100.00
22550;BME280;11441;57.164;-2.120;2023-06-26T06:17:06;100542.28;;;13.67;100.00
22550;BME280;11441;57.164;-2.120;2023-06-26T06:19:33;100542.00;;;13.79;100.00
22550;BME280;11441;57.164;-2.120;2023-06-26T06:22:00;100546.41;;;13.84;100.00
22550;BME280;11441;57.164;-2.120;2023-06-26T06:24:27;100545.34;;;13.95;100.00
22550;BME280;11441;57.164;-2.120;2023-06-26T06:26:54;100546.06;;;13.89;100.00
22550;BME280;11441;57.164;-2.120;2023-06-26T06:29:21;100532.59;;;13.87;100.00
22550;BME280;11441;57.164;-2.120;2023-06-26T06:31:48;100545.13;;;13.74;100.00
22550;BME280;11441;57.164;-2.120;2023-06-26T06:34:15;100537.44;;;13.98;100.00
22550;BME280;11441;57.164;-2.120;2023-06-26T06:36:41;100548.59;;;14.08;100.00
22550;BME280;11441;57.164;-2.120;2023-06-26T06:39:08;100547.44;;;14.09;100.00
22550;BME280;11441;57.164;-2.120;2023-06-26T06:41:35;100540.44;;;14.26;100.00
22550;BME280;11441;57.164;-2.120;2023-06-26T06:44:05;100542.84;;;14.31;100.00
22550;BME280;11441;57.164;-2.120;2023-06-26T06:46:32;100542.50;;;14.40;100.00
22550;BME280;11441;57.164;-2.120;2023-06-26T06:48:59;100548.88;;;14.41;100.00
22550;BME280;11441;57.164;-2.120;2023-06-26T06:51:44;100557.59;;;14.46;100.00
22550;BME280;11441;57.164;-2.120;2023-06-26T06:54:11;100558.41;;;14.50;100.00
22550;BME280;11441;57.164;-2.120;2023-06-26T06:56:38;100548.88;;;14.44;100.00
22550;BME280;11441;57.164;-2.120;2023-06-26T06:59:04;100549.69;;;14.48;100.00
22550;BME280;11441;57.164;-2.120;2023-06-26T07:01:31;100546.13;;;14.44;100.00
22550;BME280;11441;57.164;-2.120;2023-06-26T07:03:58;100552.47;;;14.48;100.00
22550;BME280;11441;57.164;-2.120;2023-06-26T07:06:26;100556.56;;;14.62;100.00
22550;BME280;11441;57.164;-2.120;2023-06-26T07:08:52;100557.88;;;14.82;100.00
22550;BME280;11441;57.164;-2.120;2023-06-26T07:11:19;100556.63;;;14.76;100.00
22550;BME280;11441;57.164;-2.120;2023-06-26T07:13:46;100563.38;;;14.75;100.00
22550;BME280;11441;57.164;-2.120;2023-06-26T07:16:32;100565.84;;;14.87;100.00
22550;BME280;11441;57.164;-2.120;2023-06-26T07:18:59;100557.97;;;15.04;100.00
22550;BME280;11441;57.164;-2.120;2023-06-26T07:21:26;100563.94;;;15.09;100.00
22550;BME280;11441;57.164;-2.120;2023-06-26T07:23:52;100563.56;;;15.11;100.00
22550;BME280;11441;57.164;-2.120;2023-06-26T07:26:19;100567.09;;;15.08;100.00
22550;BME280;11441;57.164;-2.120;2023-06-26T07:29:08;100568.22;;;14.93;100.00
22550;BME280;11441;57.164;-2.120;2023-06-26T07:31:35;100565.53;;;15.11;100.00
22550;BME280;11441;57.164;-2.120;2023-06-26T07:34:02;100573.06;;;15.06;100.00
22550;BME280;11441;57.164;-2.120;2023-06-26T07:36:29;100582.25;;;15.28;100.00
22550;BME280;11441;57.164;-2.120;2023-06-26T07:38:56;100573.88;;;15.11;100.00
22550;BME280;11441;57.164;-2.120;2023-06-26T07:41:23;100577.41;;;15.07;100.00
22550;BME280;11441;57.164;-2.120;2023-06-26T07:43:50;100574.69;;;15.25;100.00
22550;BME280;11441;57.164;-2.120;2023-06-26T07:46:17;100571.09;;;15.14;100.00
22550;BME280;11441;57.164;-2.120;2023-06-26T07:49:01;100570.78;;;15.37;100.00
22550;BME280;11441;57.164;-2.120;2023-06-26T07:51:28;100568.41;;;15.36;100.00
22550;BME280;11441;57.164;-2.120;2023-06-26T07:53:54;100569.63;;;15.38;100.00
22550;BME280;11441;57.164;-2.120;2023-06-26T07:56:21;100570.81;;;15.41;100.00
22550;BME280;11441;57.164;-2.120;2023-06-26T07:58:48;100559.69;;;15.41;100.00
22550;BME280;11441;57.164;-2.120;2023-06-26T08:01:15;100584.75;;;15.55;100.00
22550;BME280;11441;57.164;-2.120;2023-06-26T08:03:42;100580.38;;;15.58;100.00
22550;BME280;11441;57.164;-2.120;2023-06-26T08:06:09;100582.44;;;15.75;100.00
22550;BME280;11441;57.164;-2.120;2023-06-26T08:08:38;100579.28;;;15.88;100.00
22550;BME280;11441;57.164;-2.120;2023-06-26T08:11:05;100578.09;;;15.92;100.00
22550;BME280;11441;57.164;-2.120;2023-06-26T08:13:32;100585.25;;;15.97;100.00
22550;BME280;11441;57.164;-2.120;2023-06-26T08:15:59;100584.06;;;15.91;100.00
22550;BME280;11441;57.164;-2.120;2023-06-26T08:18:26;100591.56;;;15.76;100.00
22550;BME280;11441;57.164;-2.120;2023-06-26T08:20:53;100584.84;;;15.88;100.00
22550;BME280;11441;57.164;-2.120;2023-06-26T08:23:19;100594.00;;;16.02;100.00
22550;BME280;11441;57.164;-2.120;2023-06-26T08:25:52;100594.38;;;15.97;100.00
22550;BME280;11441;57.164;-2.120;2023-06-26T08:28:19;100590.78;;;16.00;100.00
22550;BME280;11441;57.164;-2.120;2023-06-26T08:31:03;100590.44;;;16.24;100.00
22550;BME280;11441;57.164;-2.120;2023-06-26T08:33:30;100576.16;;;16.18;100.00
22550;BME280;11441;57.164;-2.120;2023-06-26T08:35:57;100594.00;;;16.46;100.00
22550;BME280;11441;57.164;-2.120;2023-06-26T08:38:23;100597.97;;;16.37;100.00
22550;BME280;11441;57.164;-2.120;2023-06-26T08:40:50;100600.34;;;16.17;100.00
22550;BME280;11441;57.164;-2.120;2023-06-26T08:43:17;100599.16;;;16.47;100.00
22550;BME280;11441;57.164;-2.120;2023-06-26T08:45:44;100617.84;;;16.32;100.00
22550;BME280;11441;57.164;-2.120;2023-06-26T08:48:13;100615.06;;;16.36;100.00
22550;BME280;11441;57.164;-2.120;2023-06-26T08:50:40;100613.88;;;16.44;100.00
22550;BME280;11441;57.164;-2.120;2023-06-26T08:53:33;100617.44;;;16.48;100.00
22550;BME280;11441;57.164;-2.120;2023-06-26T08:56:04;100617.44;;;16.55;100.00
22550;BME280;11441;57.164;-2.120;2023-06-26T08:58:31;100603.13;;;16.53;100.00
22550;BME280;11441;57.164;-2.120;2023-06-26T09:00:59;100606.69;;;16.72;100.00
22550;BME280;11441;57.164;-2.120;2023-06-26T09:03:27;100609.03;;;17.06;100.00
22550;BME280;11441;57.164;-2.120;2023-06-26T09:05:54;100611.78;;;17.13;100.00
22550;BME280;11441;57.164;-2.120;2023-06-26T09:08:21;100608.66;;;16.78;100.00
22550;BME280;11441;57.164;-2.120;2023-06-26T09:10:48;100598.72;;;16.95;100.00
22550;BME280;11441;57.164;-2.120;2023-06-26T09:13:15;100624.94;;;17.02;100.00
22550;BME280;11441;57.164;-2.120;2023-06-26T09:16:13;100620.19;;;16.95;100.00
22550;BME280;11441;57.164;-2.120;2023-06-26T09:18:41;100626.16;;;16.90;100.00
22550;BME280;11441;57.164;-2.120;2023-06-26T09:21:09;100627.34;;;16.74;100.00
22550;BME280;11441;57.164;-2.120;2023-06-26T09:23:39;100614.59;;;16.81;100.00
22550;BME280;11441;57.164;-2.120;2023-06-26T09:26:25;100618.56;;;17.08;100.00
22550;BME280;11441;57.164;-2.120;2023-06-26T09:28:52;100625.31;;;17.14;100.00
22550;BME280;11441;57.164;-2.120;2023-06-26T09:31:20;100621.72;;;17.18;100.00
22550;BME280;11441;57.164;-2.120;2023-06-26T09:34:07;100623.31;;;17.11;100.00
22550;BME280;11441;57.164;-2.120;2023-06-26T09:36:34;100631.22;;;17.24;100.00
22550;BME280;11441;57.164;-2.120;2023-06-26T09:39:07;100620.53;;;17.11;100.00
22550;BME280;11441;57.164;-2.120;2023-06-26T09:41:41;100617.72;;;17.19;100.00
22550;BME280;11441;57.164;-2.120;2023-06-26T09:44:27;100625.19;;;17.50;100.00
22550;BME280;11441;57.164;-2.120;2023-06-26T09:47:11;100620.66;;;17.75;100.00
22550;BME280;11441;57.164;-2.120;2023-06-26T09:49:55;100632.94;;;17.92;100.00
22550;BME280;11441;57.164;-2.120;2023-06-26T09:52:26;100621.81;;;17.84;100.00
22550;BME280;11441;57.164;-2.120;2023-06-26T09:55:07;100631.88;;;17.64;100.00
22550;BME280;11441;57.164;-2.120;2023-06-26T09:57:35;100644.69;;;17.50;100.00
22550;BME280;11441;57.164;-2.120;2023-06-26T10:00:03;100641.94;;;17.29;100.00
22550;BME280;11441;57.164;-2.120;2023-06-26T10:02:48;100636.78;;;17.31;100.00
22550;BME280;11441;57.164;-2.120;2023-06-26T10:05:15;100647.88;;;17.34;100.00
22550;BME280;11441;57.164;-2.120;2023-06-26T10:07:42;100647.06;;;17.41;100.00
22550;BME280;11441;57.164;-2.120;2023-06-26T10:10:10;100650.56;;;17.67;100.00
22550;BME280;11441;57.164;-2.120;2023-06-26T10:12:38;100646.06;;;17.98;100.00
22550;BME280;11441;57.164;-2.120;2023-06-26T10:15:23;100631.72;;;18.00;100.00
22550;BME280;11441;57.164;-2.120;2023-06-26T10:17:53;100639.31;;;17.96;98.85
22550;BME280;11441;57.164;-2.120;2023-06-26T10:20:22;100640.94;;;17.86;100.00
22550;BME280;11441;57.164;-2.120;2023-06-26T10:22:50;100636.53;;;17.96;100.00
22550;BME280;11441;57.164;-2.120;2023-06-26T10:25:18;100644.00;;;18.06;97.35
22550;BME280;11441;57.164;-2.120;2023-06-26T10:27:57;100642.44;;;18.01;95.76
22550;BME280;11441;57.164;-2.120;2023-06-26T10:30:29;100637.53;;;18.20;95.08
22550;BME280;11441;57.164;-2.120;2023-06-26T10:32:59;100640.66;;;18.33;91.86
22550;BME280;11441;57.164;-2.120;2023-06-26T10:35:26;100638.69;;;18.30;89.90
22550;BME280;11441;57.164;-2.120;2023-06-26T10:38:00;100652.41;;;17.99;87.23
22550;BME280;11441;57.164;-2.120;2023-06-26T10:40:43;100661.53;;;18.06;100.00
22550;BME280;11441;57.164;-2.120;2023-06-26T10:43:12;100669.50;;;18.01;92.47
22550;BME280;11441;57.164;-2.120;2023-06-26T10:45:47;100680.72;;;17.86;100.00
22550;BME280;11441;57.164;-2.120;2023-06-26T10:48:19;100679.94;;;17.89;100.00
22550;BME280;11441;57.164;-2.120;2023-06-26T10:51:15;100674.78;;;17.77;100.00
22550;BME280;11441;57.164;-2.120;2023-06-26T10:53:42;100675.91;;;17.98;100.00
22550;BME280;11441;57.164;-2.120;2023-06-26T10:56:12;100683.41;;;18.08;98.53
22550;BME280;11441;57.164;-2.120;2023-06-26T11:06:24;100671.59;;;17.79;94.38
22550;BME280;11441;57.164;-2.120;2023-06-26T11:08:59;100675.53;;;17.88;93.47
22550;BME280;11441;57.164;-2.120;2023-06-26T11:14:23;100673.72;;;18.31;87.97
22550;BME280;11441;57.164;-2.120;2023-06-26T11:16:51;100671.25;;;18.40;87.68
22550;BME280;11441;57.164;-2.120;2023-06-26T11:19:19;100671.25;;;18.40;84.54
22550;BME280;11441;57.164;-2.120;2023-06-26T11:22:05;100654.81;;;18.53;86.11
22550;BME280;11441;57.164;-2.120;2023-06-26T11:24:33;100653.31;;;18.93;88.23
22550;BME280;11441;57.164;-2.120;2023-06-26T11:27:01;100662.94;;;18.81;87.97
22550;BME280;11441;57.164;-2.120;2023-06-26T11:29:29;100657.47;;;18.71;87.62
22550;BME280;11441;57.164;-2.120;2023-06-26T11:32:15;100667.13;;;18.59;83.07
22550;BME280;11441;57.164;-2.120;2023-06-26T11:34:43;100665.13;;;18.59;79.31
22550;BME280;11441;57.164;-2.120;2023-06-26T11:37:29;100674.34;;;19.01;78.46
22550;BME280;11441;57.164;-2.120;2023-06-26T11:39:56;100673.94;;;19.03;71.73
22550;BME280;11441;57.164;-2.120;2023-06-26T11:42:23;100668.22;;;19.14;70.26
22550;BME280;11441;57.164;-2.120;2023-06-26T11:44:52;100668.66;;;19.47;72.45
22550;BME280;11441;57.164;-2.120;2023-06-26T11:47:20;100679.28;;;19.59;69.98
22550;BME280;11441;57.164;-2.120;2023-06-26T11:49:49;100696.25;;;19.41;73.11
22550;BME280;11441;57.164;-2.120;2023-06-26T11:52:16;100700.59;;;19.08;92.49
22550;BME280;11441;57.164;-2.120;2023-06-26T11:54:44;100717.34;;;18.55;100.00
22550;BME280;11441;57.164;-2.120;2023-06-26T11:57:15;100720.88;;;17.96;100.00
22550;BME280;11441;57.164;-2.120;2023-06-26T11:59:44;100722.53;;;17.76;100.00
22550;BME280;11441;57.164;-2.120;2023-06-26T12:02:13;100707.09;;;17.53;100.00
22550;BME280;11441;57.164;-2.120;2023-06-26T12:04:42;100713.09;;;17.44;100.00
22550;BME280;11441;57.164;-2.120;2023-06-26T12:07:11;100706.38;;;17.38;100.00
22550;BME280;11441;57.164;-2.120;2023-06-26T12:09:58;100705.09;;;17.53;100.00
22550;BME280;11441;57.164;-2.120;2023-06-26T12:12:26;100705.06;;;17.61;100.00
22550;BME280;11441;57.164;-2.120;2023-06-26T12:14:53;100703.81;;;17.90;100.00
22550;BME280;11441;57.164;-2.120;2023-06-26T12:17:22;100708.91;;;18.03;100.00
22550;BME280;11441;57.164;-2.120;2023-06-26T12:19:50;100709.59;;;18.21;100.00
22550;BME280;11441;57.164;-2.120;2023-06-26T12:22:18;100711.88;;;18.41;100.00
22550;BME280;11441;57.164;-2.120;2023-06-26T12:24:45;100702.88;;;18.15;100.00
22550;BME280;11441;57.164;-2.120;2023-06-26T12:27:31;100704.88;;;18.18;100.00
22550;BME280;11441;57.164;-2.120;2023-06-26T12:29:58;100704.03;;;18.18;100.00
22550;BME280;11441;57.164;-2.120;2023-06-26T12:32:25;100701.94;;;18.36;100.00
22550;BME280;11441;57.164;-2.120;2023-06-26T12:34:56;100707.16;;;18.31;100.00
22550;BME280;11441;57.164;-2.120;2023-06-26T12:37:23;100700.00;;;18.30;100.00
22550;BME280;11441;57.164;-2.120;2023-06-26T12:39:55;100699.13;;;18.43;100.00
22550;BME280;11441;57.164;-2.120;2023-06-26T12:42:24;100700.22;;;18.57;100.00
22550;BME280;11441;57.164;-2.120;2023-06-26T12:44:52;100705.25;;;18.76;100.00
22550;BME280;11441;57.164;-2.120;2023-06-26T12:47:25;100696.34;;;18.92;100.00
22550;BME280;11441;57.164;-2.120;2023-06-26T12:49:54;100700.00;;;18.86;100.00
22550;BME280;11441;57.164;-2.120;2023-06-26T12:52:21;100702.34;;;18.91;100.00
22550;BME280;11441;57.164;-2.120;2023-06-26T12:54:53;100721.41;;;18.99;100.00
22550;BME280;11441;57.164;-2.120;2023-06-26T12:57:20;100727.06;;;18.33;100.00
22550;BME280;11441;57.164;-2.120;2023-06-26T12:59:48;100743.38;;;17.06;100.00
22550;BME280;11441;57.164;-2.120;2023-06-26T13:02:15;100741.66;;;16.26;100.00
22550;BME280;11441;57.164;-2.120;2023-06-26T13:04:41;100729.25;;;15.88;100.00
22550;BME280;11441;57.164;-2.120;2023-06-26T13:07:11;100742.31;;;15.83;100.00